Latest Coastal Weather Observations for Yanakie

IDV60701

Issued at 3:11 am EDT Sunday 1 February 2015 (issued every 10 minutes, with the page automatically refreshed every 10 minutes)

About coastal observations | Map of coastal stations | Coastal observations for VIC | Marine services | Other Formats
Station Details ID: 085301 Name: YANAKIE Lat: -38.81 Lon: 146.19 Height: 13.3 m
Data from the previous 72 hours. | See also: Recent months at Yanakie
Date/Time
EDT
Temp

°C
Wind Pressure Rain
since 9am
mm
Weather Cloud Vis
km
Sea
Height
m
Swell
Dir
 
Speed
knots
Gust
knots
hPa Trend Height
m
Period
s
Dir
01/03:00am 14.0 WNW 5 6 1010.7 - 0.0 - - - - - - -
01/02:30am 13.4 W 4 5 1010.9 - 0.0 - - - - - - -
01/02:00am 13.2 W 5 5 1010.7 - 0.0 - - - - - - -
01/01:30am 14.2 W 6 7 1010.9 - 0.0 - - - - - - -
01/01:00am 14.9 W 7 9 1011.1 - 0.0 - - - - - - -
01/12:30am 15.9 W 8 12 1011.3 - 0.0 - - - - - - -
01/12:00am 15.7 WSW 8 10 1011.5 - 0.0 - - - - - - -
 
Date/Time
EDT
Temp

°C
Wind Pressure Rain
since 9am
mm
Weather Cloud Vis
km
Sea
Height
m
Swell
Dir
 
Speed
knots
Gust
knots
hPa Trend Height
m
Period
s
Dir
31/11:30pm 15.6 WSW 8 12 1011.7 - 0.0 - - - - - - -
31/11:00pm 15.8 WSW 9 12 1011.7 - 0.0 - - - - - - -
31/10:30pm 16.2 WSW 8 13 1011.7 - 0.0 - - - - - - -
31/10:00pm 15.7 WNW 4 7 1011.7 - 0.0 - - - - - - -
31/09:30pm 15.3 WNW 4 6 1011.5 - 0.0 - - - - - - -
31/09:00pm 16.2 W 7 9 1011.2 - 0.0 - - - - - - -
31/08:30pm 16.6 W 8 11 1011.1 - 0.0 - - - - - - -
31/08:00pm 17.2 W 9 13 1010.8 - 0.0 - - - - - - -
31/07:30pm 17.8 WSW 10 15 1010.7 - 0.0 - - - - - - -
31/07:00pm 19.1 WSW 11 15 1010.6 - 0.0 - - - - - - -
31/06:30pm 19.8 W 12 16 1010.2 - 0.0 - - - - - - -
31/06:00pm 20.2 WSW 12 15 1010.2 - 0.0 - - - - - - -
31/05:30pm 21.0 WSW 12 17 1010.2 - 0.0 - - - - - - -
31/05:00pm 20.9 WSW 13 17 1010.3 - 0.0 - - - - - - -
31/04:30pm 21.7 SW 13 17 1010.3 - 0.0 - - - - - - -
31/04:00pm 22.3 SW 14 18 1010.3 - 0.0 - - - - - - -
31/03:30pm 22.0 SW 12 16 1010.2 - 0.0 - - - - - - -
31/03:00pm 22.6 SW 13 18 1010.2 - 0.0 - - - - - - -
31/02:30pm 21.9 SW 13 17 1010.2 - 0.0 - - - - - - -
31/02:00pm 22.1 SW 12 18 1010.1 - 0.0 - - - - - - -
31/01:30pm 23.1 SW 11 15 1010.2 - 0.0 - - - - - - -
31/01:00pm 23.2 SW 10 13 1010.4 - 0.0 - - - - - - -
31/12:30pm 23.1 SW 9 12 1010.5 - 0.0 - - - - - - -
31/12:00pm 21.7 SW 9 13 1010.5 - 0.0 - - - - - - -
31/11:30am 21.2 WSW 5 9 1010.5 - 0.0 - - - - - - -
31/11:00am 21.3 SW 6 9 1010.5 - 0.0 - - - - - - -
31/10:30am 20.9 SW 8 12 1010.6 - 0.0 - - - - - - -
31/10:00am 19.8 WSW 6 9 1010.5 - 0.0 - - - - - - -
31/09:30am 19.4 W 7 9 1010.5 - 0.0 - - - - - - -
31/09:00am 17.2 WNW 6 8 1010.4 - 0.0 - - - - - - -
31/08:30am 15.4 WNW 5 7 1010.5 - 0.0 - - - - - - -
31/08:00am 14.4 WNW 5 7 1010.5 - 0.0 - - - - - - -
31/07:30am 12.6 WNW 3 4 1010.3 - 0.0 - - - - - - -
31/07:00am 9.3 W 2 3 1010.1 - 0.0 - - - - - - -
31/06:30am 10.4 CALM 0 0 1009.9 - 0.0 - - - - - - -
31/06:00am 11.5 W 5 5 1009.7 - 0.0 - - - - - - -
31/05:30am 11.6 W 7 8 1009.5 - 0.0 - - - - - - -
31/05:00am 10.3 W 4 6 1009.6 - 0.0 - - - - - - -
31/04:30am 11.0 WNW 3 3 1009.7 - 0.0 - - - - - - -
31/04:00am 10.8 WNW 3 5 1009.9 - 0.0 - - - - - - -
31/03:30am 10.3 W 2 3 1010.1 - 0.0 - - - - - - -
31/03:00am 11.0 WNW 4 5 1010.4 - 0.0 - - - - - - -
31/02:30am 11.2 NW 5 6 1010.7 - 0.0 - - - - - - -
31/02:00am 10.8 WNW 4 5 1010.8 - 0.0 - - - - - - -
31/01:30am 11.6 NW 6 7 1011.2 - 0.0 - - - - - - -
31/01:00am 11.8 NW 4 6 1011.5 - 0.0 - - - - - - -
31/12:30am 12.2 WNW 4 5 1011.8 - 0.0 - - - - - - -
31/12:00am 13.4 WSW 3 5 1012.0 - 0.0 - - - - - - -
 
Date/Time
EDT
Temp

°C
Wind Pressure Rain
since 9am
mm
Weather Cloud Vis
km
Sea
Height
m
Swell
Dir
 
Speed
knots
Gust
knots
hPa Trend Height
m
Period
s
Dir
30/11:30pm 14.2 WSW 5 7 1012.3 - 0.0 - - - - - - -
30/11:00pm 14.3 SW 6 9 1012.5 - 0.0 - - - - - - -
30/10:30pm 14.3 WSW 2 4 1012.8 - 0.0 - - - - - - -
30/10:00pm 14.5 NW 4 5 1012.9 - 0.0 - - - - - - -
30/09:30pm 15.4 WSW 5 8 1012.8 - 0.0 - - - - - - -
30/09:00pm 15.0 WSW 5 6 1012.8 - 0.0 - - - - - - -
30/08:30pm 14.4 SW 4 6 1012.9 - 0.0 - - - - - - -
30/08:00pm 16.4 SW 5 8 1013.0 - 0.0 - - - - - - -
30/07:30pm 17.3 SW 9 12 1013.0 - 0.0 - - - - - - -
30/07:00pm 17.1 SSW 10 13 1013.0 - 0.0 - - - - - - -
30/06:30pm 17.2 SSW 10 15 1013.0 - 0.0 - - - - - - -
30/06:00pm 17.2 SSW 11 15 1013.3 - 0.0 - - - - - - -
30/05:30pm 17.3 SSW 11 16 1013.5 - 0.0 - - - - - - -
30/05:00pm 17.4 S 12 17 1013.6 - 0.0 - - - - - - -
30/04:30pm 19.0 S 12 18 1013.7 - 0.0 - - - - - - -
30/04:00pm 19.1 S 11 18 1014.0 - 0.0 - - - - - - -
30/03:30pm 20.1 SSW 12 18 1014.1 - 0.0 - - - - - - -
30/03:00pm 20.2 SW 13 19 1014.3 - 0.0 - - - - - - -
30/02:30pm 20.5 SW 13 17 1014.5 - 0.0 - - - - - - -
30/02:00pm 19.3 SW 11 15 1014.7 - 0.0 - - - - - - -
30/01:30pm 19.9 SW 11 15 1014.9 - 0.0 - - - - - - -
30/01:00pm 19.1 SSW 9 12 1015.2 - 0.0 - - - - - - -
30/12:30pm 17.5 SSW 8 11 1015.5 - 0.0 - - - - - - -
30/12:00pm 17.5 SSW 8 12 1015.7 - 0.0 - - - - - - -
30/11:30am 17.8 S 6 11 1015.9 - 0.0 - - - - - - -
30/11:00am 16.9 S 8 11 1016.1 - 0.0 - - - - - - -
30/10:30am 16.8 S 8 11 1016.2 - 0.0 - - - - - - -
30/10:00am 18.0 S 6 14 1016.2 - 0.0 - - - - - - -
30/09:30am 17.4 SSE 6 10 1016.3 - 0.0 - - - - - - -
30/09:00am 16.9 SSE 6 10 1016.4 - 1.6 - - - - - - -
30/08:30am 16.0 SSE 5 8 1016.3 - 1.6 - - - - - - -
30/08:00am 15.0 SSE 3 6 1016.2 - 1.6 - - - - - - -
30/07:30am 11.6 SSE 3 3 1016.0 - 1.6 - - - - - - -
30/07:00am 10.4 SE 3 4 1015.8 - 1.6 - - - - - - -
30/06:30am 9.0 SSE 1 4 1015.9 - 1.6 - - - - - - -
30/06:00am 9.6 CALM 0 0 1015.8 - 1.6 - - - - - - -
30/05:30am 9.8 S 2 3 1016.0 - 1.6 - - - - - - -
30/05:00am 10.3 S 2 2 1016.1 - 1.6 - - - - - - -
30/04:30am 11.1 CALM 0 3 1016.3 - 1.6 - - - - - - -
30/04:00am 12.1 SE 2 4 1016.3 - 1.6 - - - - - - -
30/03:30am 12.5 SSE 3 5 1016.7 - 1.4 - - - - - - -
30/03:00am 12.3 SSE 3 4 1016.8 - 1.4 - - - - - - -
30/02:30am 12.3 S 3 3 1016.9 - 1.4 - - - - - - -
30/02:00am 12.2 SSE 3 5 1017.2 - 1.4 - - - - - - -
30/01:30am 12.3 SSE 2 3 1017.3 - 1.4 - - - - - - -
30/01:00am 12.9 SSE 7 10 1018.4 - 1.2 - - - - - - -
30/12:30am 13.2 SSE 5 7 1018.4 - 1.2 - - - - - - -
30/12:00am 13.4 S 3 3 1018.2 - 1.0 - - - - - - -
 
Date/Time
EDT
Temp

°C
Wind Pressure Rain
since 9am
mm
Weather Cloud Vis
km
Sea
Height
m
Swell
Dir
 
Speed
knots
Gust
knots
hPa Trend Height
m
Period
s
Dir
29/11:30pm 13.2 SSE 3 4 1018.5 - 1.0 - - - - - - -
29/11:00pm 12.7 SE 3 5 1018.7 - 1.0 - - - - - - -
29/10:30pm 13.1 SE 3 4 1019.0 - 1.0 - - - - - - -
29/10:00pm 13.6 SE 4 6 1019.1 - 1.0 - - - - - - -
29/09:30pm 13.7 SE 4 6 1019.0 - 1.0 - - - - - - -
29/09:00pm 14.4 SE 4 6 1018.9 - 1.0 - - - - - - -
29/08:30pm 15.1 SE 5 9 1018.9 - 1.0 - - - - - - -
29/08:00pm 16.4 SE 8 13 1018.9 - 1.0 - - - - - - -
29/07:30pm 16.9 ESE 9 16 1018.8 - 1.0 - - - - - - -
29/07:00pm 17.5 SE 9 17 1018.8 - 1.0 - - - - - - -
29/06:30pm 16.4 ESE 11 17 1018.8 - 1.0 - - - - - - -
29/06:00pm 17.4 ESE 12 17 1018.9 - 1.0 - - - - - - -
29/05:30pm 17.9 ESE 9 17 1019.0 - 1.0 - - - - - - -
29/05:00pm 15.0 ESE 11 19 1019.4 - 1.0 - - - - - - -
29/04:30pm 17.3 SE 9 15 1019.4 - 1.0 - - - - - - -
29/04:00pm 16.7 SE 11 17 1019.6 - 1.0 - - - - - - -
29/03:30pm 15.5 SSE 12 19 1019.7 - 1.0 - - - - - - -
29/03:00pm 16.7 S 10 14 1020.0 - 0.2 Recent precip. - - - - - -
29/02:30pm 18.4 S 11 16 1020.1 - 0.0 - - - - - - -
29/02:00pm 19.1 S 9 15 1020.2 - 0.0 - - - - - - -
29/01:30pm 17.4 SSE 13 21 1020.5 - 0.0 - - - - - - -
29/01:00pm 19.4 SSE 10 16 1020.4 - 0.0 - - - - - - -
29/12:30pm 18.4 SE 7 12 1020.6 - 0.0 - - - - - - -
29/12:00pm 17.8 S 8 13 1020.8 - 0.0 - - - - - - -
29/11:30am 16.3 SSE 8 12 1021.0 - 0.0 - - - - - - -
29/11:00am 15.6 SSE 7 13 1021.1 - 0.0 - - - - - - -
29/10:30am 17.3 SSE 9 13 1021.0 - 0.0 - - - - - - -
29/10:00am 17.1 SSE 9 13 1021.1 - 0.0 - - - - - - -
29/09:30am 18.5 SSE 8 11 1021.1 - 0.0 - - - - - - -
29/09:00am 17.6 SSE 6 9 1021.1 - 0.0 - - - - - - -
29/08:30am 16.9 SSE 4 9 1020.9 - 0.0 - - - - - - -
29/08:00am 15.2 SSE 2 4 1020.7 - 0.0 - - - - - - -
29/07:30am 12.1 SSE 1 1 1020.6 - 0.0 - - - - - - -
29/07:00am 10.6 S 1 2 1020.3 - 0.0 - - - - - - -
29/06:30am 10.7 SE 3 6 1020.1 - 0.0 - - - - - - -
29/06:00am 10.8 SE 3 5 1020.0 - 0.0 - - - - - - -
29/05:30am 11.2 SSE 3 4 1019.7 - 0.0 - - - - - - -
29/05:00am 11.4 SSE 3 5 1019.7 - 0.0 - - - - - - -
29/04:30am 11.9 S 4 5 1019.7 - 0.0 - - - - - - -
29/04:00am 13.9 SE 5 8 1019.6 - 0.0 - - - - - - -
29/03:30am 13.5 SE 4 7 1019.8 - 0.0 - - - - - - -

Other Formats:

Comma delimited format used in spreadsheet applications
http://www.bom.gov.au/fwo/IDV60701/IDV60701.94911.axf

JavaScript Object Notation format (JSON) in row-major order
http://www.bom.gov.au/fwo/IDV60701/IDV60701.94911.json